sensor_id;sensor_type;location;lat;lon;timestamp;temperature;humidity
43225;DHT22;28834;48.720;9.208;2022-08-19T00:00:03;20.20;99.90
43225;DHT22;28834;48.720;9.208;2022-08-19T00:02:29;20.20;99.90
43225;DHT22;28834;48.720;9.208;2022-08-19T00:04:54;20.10;99.90
43225;DHT22;28834;48.720;9.208;2022-08-19T00:07:20;20.10;99.90
43225;DHT22;28834;48.720;9.208;2022-08-19T00:09:46;20.10;99.90
43225;DHT22;28834;48.720;9.208;2022-08-19T00:12:12;20.10;99.90
43225;DHT22;28834;48.720;9.208;2022-08-19T00:14:39;20.10;99.90
43225;DHT22;28834;48.720;9.208;2022-08-19T00:17:06;20.10;99.90
43225;DHT22;28834;48.720;9.208;2022-08-19T00:19:32;20.10;99.90
43225;DHT22;28834;48.720;9.208;2022-08-19T00:21:58;20.10;99.90
43225;DHT22;28834;48.720;9.208;2022-08-19T00:24:24;20.10;99.90
43225;DHT22;28834;48.720;9.208;2022-08-19T00:26:50;20.00;99.90
43225;DHT22;28834;48.720;9.208;2022-08-19T00:29:18;20.00;99.90
43225;DHT22;28834;48.720;9.208;2022-08-19T00:31:44;20.00;99.90
43225;DHT22;28834;48.720;9.208;2022-08-19T00:34:11;20.00;99.90
43225;DHT22;28834;48.720;9.208;2022-08-19T00:36:37;20.00;99.90
43225;DHT22;28834;48.720;9.208;2022-08-19T00:39:03;19.90;99.90
43225;DHT22;28834;48.720;9.208;2022-08-19T00:41:29;19.90;99.90
43225;DHT22;28834;48.720;9.208;2022-08-19T00:46:31;19.90;99.90
43225;DHT22;28834;48.720;9.208;2022-08-19T00:48:59;19.80;99.90
43225;DHT22;28834;48.720;9.208;2022-08-19T00:51:27;19.80;99.90
43225;DHT22;28834;48.720;9.208;2022-08-19T00:53:56;19.70;99.90
43225;DHT22;28834;48.720;9.208;2022-08-19T00:56:22;19.60;99.90
43225;DHT22;28834;48.720;9.208;2022-08-19T00:58:48;19.60;99.90
43225;DHT22;28834;48.720;9.208;2022-08-19T01:01:15;19.50;99.90
43225;DHT22;28834;48.720;9.208;2022-08-19T01:03:41;19.50;99.90
43225;DHT22;28834;48.720;9.208;2022-08-19T01:06:07;19.50;99.90
43225;DHT22;28834;48.720;9.208;2022-08-19T01:08:33;19.40;99.90
43225;DHT22;28834;48.720;9.208;2022-08-19T01:10:59;19.40;99.90
43225;DHT22;28834;48.720;9.208;2022-08-19T01:13:32;19.50;99.90
43225;DHT22;28834;48.720;9.208;2022-08-19T01:16:02;19.50;99.90
43225;DHT22;28834;48.720;9.208;2022-08-19T01:18:29;19.40;99.90
43225;DHT22;28834;48.720;9.208;2022-08-19T01:20:58;19.40;99.90
43225;DHT22;28834;48.720;9.208;2022-08-19T01:23:26;19.40;99.90
43225;DHT22;28834;48.720;9.208;2022-08-19T01:26:13;19.40;99.90
43225;DHT22;28834;48.720;9.208;2022-08-19T01:28:40;19.40;99.90
43225;DHT22;28834;48.720;9.208;2022-08-19T01:31:15;19.40;99.90
43225;DHT22;28834;48.720;9.208;2022-08-19T01:33:41;19.40;99.90
43225;DHT22;28834;48.720;9.208;2022-08-19T01:36:12;19.40;99.90
43225;DHT22;28834;48.720;9.208;2022-08-19T01:38:41;19.40;99.90
43225;DHT22;28834;48.720;9.208;2022-08-19T01:41:08;19.40;99.90
43225;DHT22;28834;48.720;9.208;2022-08-19T01:43:34;19.40;99.90
43225;DHT22;28834;48.720;9.208;2022-08-19T01:46:00;19.40;99.90
43225;DHT22;28834;48.720;9.208;2022-08-19T01:48:26;19.40;99.90
43225;DHT22;28834;48.720;9.208;2022-08-19T01:50:54;19.40;99.90
43225;DHT22;28834;48.720;9.208;2022-08-19T01:53:20;19.40;99.90
43225;DHT22;28834;48.720;9.208;2022-08-19T01:55:45;19.40;99.90
43225;DHT22;28834;48.720;9.208;2022-08-19T01:58:16;19.40;99.90
43225;DHT22;28834;48.720;9.208;2022-08-19T02:00:44;19.40;99.90
43225;DHT22;28834;48.720;9.208;2022-08-19T02:03:10;19.40;99.90
43225;DHT22;28834;48.720;9.208;2022-08-19T02:05:37;19.40;99.90
43225;DHT22;28834;48.720;9.208;2022-08-19T02:08:03;19.40;99.90
43225;DHT22;28834;48.720;9.208;2022-08-19T02:10:29;19.40;99.90
43225;DHT22;28834;48.720;9.208;2022-08-19T02:12:55;19.40;99.90
43225;DHT22;28834;48.720;9.208;2022-08-19T02:15:20;19.40;99.90
43225;DHT22;28834;48.720;9.208;2022-08-19T02:17:47;19.40;99.90
43225;DHT22;28834;48.720;9.208;2022-08-19T02:20:14;19.40;99.90
43225;DHT22;28834;48.720;9.208;2022-08-19T02:22:40;19.40;99.90
43225;DHT22;28834;48.720;9.208;2022-08-19T02:25:11;19.40;99.90
43225;DHT22;28834;48.720;9.208;2022-08-19T02:27:38;19.40;99.90
43225;DHT22;28834;48.720;9.208;2022-08-19T02:30:06;19.40;99.90
43225;DHT22;28834;48.720;9.208;2022-08-19T02:32:33;19.40;99.90
43225;DHT22;28834;48.720;9.208;2022-08-19T02:34:58;19.40;99.90
43225;DHT22;28834;48.720;9.208;2022-08-19T02:37:24;19.40;99.90
43225;DHT22;28834;48.720;9.208;2022-08-19T02:40:08;19.30;99.90
43225;DHT22;28834;48.720;9.208;2022-08-19T02:42:34;19.30;99.90
43225;DHT22;28834;48.720;9.208;2022-08-19T02:45:01;19.30;99.90
43225;DHT22;28834;48.720;9.208;2022-08-19T02:47:26;19.20;99.90
43225;DHT22;28834;48.720;9.208;2022-08-19T02:49:52;19.20;99.90
43225;DHT22;28834;48.720;9.208;2022-08-19T02:52:17;19.20;99.90
43225;DHT22;28834;48.720;9.208;2022-08-19T02:54:43;19.10;99.90
43225;DHT22;28834;48.720;9.208;2022-08-19T02:57:09;19.10;99.90
43225;DHT22;28834;48.720;9.208;2022-08-19T02:59:35;19.10;99.90
43225;DHT22;28834;48.720;9.208;2022-08-19T03:02:00;19.20;99.90
43225;DHT22;28834;48.720;9.208;2022-08-19T03:04:26;19.10;99.90
43225;DHT22;28834;48.720;9.208;2022-08-19T03:06:52;19.10;99.90
43225;DHT22;28834;48.720;9.208;2022-08-19T03:09:19;19.10;99.90
43225;DHT22;28834;48.720;9.208;2022-08-19T03:11:45;19.10;99.90
43225;DHT22;28834;48.720;9.208;2022-08-19T03:14:11;19.10;99.90
43225;DHT22;28834;48.720;9.208;2022-08-19T03:16:47;19.00;99.90
43225;DHT22;28834;48.720;9.208;2022-08-19T03:19:16;19.00;99.90
43225;DHT22;28834;48.720;9.208;2022-08-19T03:21:42;19.00;99.90
43225;DHT22;28834;48.720;9.208;2022-08-19T03:24:10;19.10;99.90
43225;DHT22;28834;48.720;9.208;2022-08-19T03:26:48;19.00;99.90
43225;DHT22;28834;48.720;9.208;2022-08-19T03:29:15;19.00;99.90
43225;DHT22;28834;48.720;9.208;2022-08-19T03:31:42;19.00;99.90
43225;DHT22;28834;48.720;9.208;2022-08-19T03:34:09;19.00;99.90
43225;DHT22;28834;48.720;9.208;2022-08-19T03:36:37;19.00;99.90
43225;DHT22;28834;48.720;9.208;2022-08-19T03:39:03;18.90;99.90
43225;DHT22;28834;48.720;9.208;2022-08-19T03:41:36;18.90;99.90
43225;DHT22;28834;48.720;9.208;2022-08-19T03:44:02;18.90;99.90
43225;DHT22;28834;48.720;9.208;2022-08-19T03:46:31;18.90;99.90
43225;DHT22;28834;48.720;9.208;2022-08-19T03:48:59;18.90;99.90
43225;DHT22;28834;48.720;9.208;2022-08-19T03:51:28;18.90;99.90
43225;DHT22;28834;48.720;9.208;2022-08-19T03:53:56;18.90;99.90
43225;DHT22;28834;48.720;9.208;2022-08-19T03:56:22;18.90;99.90
43225;DHT22;28834;48.720;9.208;2022-08-19T03:58:48;18.90;99.90
43225;DHT22;28834;48.720;9.208;2022-08-19T04:01:16;18.90;99.90
43225;DHT22;28834;48.720;9.208;2022-08-19T04:03:43;18.80;99.90
43225;DHT22;28834;48.720;9.208;2022-08-19T04:06:14;18.80;99.90
43225;DHT22;28834;48.720;9.208;2022-08-19T04:08:41;18.80;99.90
43225;DHT22;28834;48.720;9.208;2022-08-19T04:11:09;18.80;99.90
43225;DHT22;28834;48.720;9.208;2022-08-19T04:13:35;18.80;99.90
43225;DHT22;28834;48.720;9.208;2022-08-19T04:16:01;18.80;99.90
43225;DHT22;28834;48.720;9.208;2022-08-19T04:18:26;18.80;99.90
43225;DHT22;28834;48.720;9.208;2022-08-19T04:20:55;18.80;99.90
43225;DHT22;28834;48.720;9.208;2022-08-19T04:23:20;18.80;99.90
43225;DHT22;28834;48.720;9.208;2022-08-19T04:25:46;18.80;99.90
43225;DHT22;28834;48.720;9.208;2022-08-19T04:28:12;18.70;99.90
43225;DHT22;28834;48.720;9.208;2022-08-19T04:30:43;18.80;99.90
43225;DHT22;28834;48.720;9.208;2022-08-19T04:33:10;18.70;99.90
43225;DHT22;28834;48.720;9.208;2022-08-19T04:35:41;18.70;99.90
43225;DHT22;28834;48.720;9.208;2022-08-19T04:38:08;18.70;99.90
43225;DHT22;28834;48.720;9.208;2022-08-19T04:40:39;18.70;99.90
43225;DHT22;28834;48.720;9.208;2022-08-19T04:43:23;18.70;99.90
43225;DHT22;28834;48.720;9.208;2022-08-19T04:45:49;18.60;99.90
43225;DHT22;28834;48.720;9.208;2022-08-19T04:48:16;18.70;99.90
43225;DHT22;28834;48.720;9.208;2022-08-19T04:50:43;18.70;99.90
43225;DHT22;28834;48.720;9.208;2022-08-19T04:53:09;18.60;99.90
43225;DHT22;28834;48.720;9.208;2022-08-19T04:55:38;18.70;99.90
43225;DHT22;28834;48.720;9.208;2022-08-19T04:58:04;18.70;99.90
43225;DHT22;28834;48.720;9.208;2022-08-19T05:00:30;18.70;99.90
43225;DHT22;28834;48.720;9.208;2022-08-19T05:02:55;18.70;99.90
43225;DHT22;28834;48.720;9.208;2022-08-19T05:05:21;18.70;99.90
43225;DHT22;28834;48.720;9.208;2022-08-19T05:07:46;18.70;99.90
43225;DHT22;28834;48.720;9.208;2022-08-19T05:10:12;18.70;99.90
43225;DHT22;28834;48.720;9.208;2022-08-19T05:12:38;18.70;99.90
43225;DHT22;28834;48.720;9.208;2022-08-19T05:15:05;18.80;99.90
43225;DHT22;28834;48.720;9.208;2022-08-19T05:17:32;18.80;99.90
43225;DHT22;28834;48.720;9.208;2022-08-19T05:19:57;18.80;99.90
43225;DHT22;28834;48.720;9.208;2022-08-19T05:22:44;18.80;99.90
43225;DHT22;28834;48.720;9.208;2022-08-19T05:25:13;18.90;99.90
43225;DHT22;28834;48.720;9.208;2022-08-19T05:27:40;18.90;99.90
43225;DHT22;28834;48.720;9.208;2022-08-19T05:30:07;18.90;99.90
43225;DHT22;28834;48.720;9.208;2022-08-19T05:32:33;18.90;99.90
43225;DHT22;28834;48.720;9.208;2022-08-19T05:34:58;18.90;99.90
43225;DHT22;28834;48.720;9.208;2022-08-19T05:37:24;18.90;99.90
43225;DHT22;28834;48.720;9.208;2022-08-19T05:39:52;18.90;99.90
43225;DHT22;28834;48.720;9.208;2022-08-19T05:42:18;18.90;99.90
43225;DHT22;28834;48.720;9.208;2022-08-19T05:44:45;18.90;99.90
43225;DHT22;28834;48.720;9.208;2022-08-19T05:47:12;18.90;99.90
43225;DHT22;28834;48.720;9.208;2022-08-19T05:49:38;18.90;99.90
43225;DHT22;28834;48.720;9.208;2022-08-19T05:52:05;18.90;99.90
43225;DHT22;28834;48.720;9.208;2022-08-19T05:54:32;18.90;99.90
43225;DHT22;28834;48.720;9.208;2022-08-19T05:56:57;18.90;99.90
43225;DHT22;28834;48.720;9.208;2022-08-19T05:59:23;18.90;99.90
43225;DHT22;28834;48.720;9.208;2022-08-19T06:01:51;18.90;99.90
43225;DHT22;28834;48.720;9.208;2022-08-19T06:04:18;18.90;99.90
43225;DHT22;28834;48.720;9.208;2022-08-19T06:06:45;18.90;99.90
43225;DHT22;28834;48.720;9.208;2022-08-19T06:09:11;19.00;99.90
43225;DHT22;28834;48.720;9.208;2022-08-19T06:11:38;18.90;99.90
43225;DHT22;28834;48.720;9.208;2022-08-19T06:14:09;19.00;99.90
43225;DHT22;28834;48.720;9.208;2022-08-19T06:16:36;18.90;99.90
43225;DHT22;28834;48.720;9.208;2022-08-19T06:19:07;19.00;99.90
43225;DHT22;28834;48.720;9.208;2022-08-19T06:21:35;19.00;99.90
43225;DHT22;28834;48.720;9.208;2022-08-19T06:24:06;19.00;99.90
43225;DHT22;28834;48.720;9.208;2022-08-19T06:26:34;19.00;99.90
43225;DHT22;28834;48.720;9.208;2022-08-19T06:29:00;19.00;99.90
43225;DHT22;28834;48.720;9.208;2022-08-19T06:31:28;19.00;99.90
43225;DHT22;28834;48.720;9.208;2022-08-19T06:33:54;18.90;99.90
43225;DHT22;28834;48.720;9.208;2022-08-19T06:36:23;18.90;99.90
43225;DHT22;28834;48.720;9.208;2022-08-19T06:38:53;18.90;99.90
43225;DHT22;28834;48.720;9.208;2022-08-19T06:41:19;18.90;99.90
43225;DHT22;28834;48.720;9.208;2022-08-19T06:43:45;18.80;99.90
43225;DHT22;28834;48.720;9.208;2022-08-19T06:46:16;18.70;99.90
43225;DHT22;28834;48.720;9.208;2022-08-19T06:48:43;18.70;99.90
43225;DHT22;28834;48.720;9.208;2022-08-19T06:51:08;18.70;99.90
43225;DHT22;28834;48.720;9.208;2022-08-19T06:53:34;18.60;99.90
43225;DHT22;28834;48.720;9.208;2022-08-19T06:56:00;18.60;99.90
43225;DHT22;28834;48.720;9.208;2022-08-19T06:58:30;18.60;99.90
43225;DHT22;28834;48.720;9.208;2022-08-19T07:01:01;18.60;99.90
43225;DHT22;28834;48.720;9.208;2022-08-19T07:03:32;18.60;99.90
43225;DHT22;28834;48.720;9.208;2022-08-19T07:06:07;18.60;99.90
43225;DHT22;28834;48.720;9.208;2022-08-19T07:08:33;18.50;99.90
43225;DHT22;28834;48.720;9.208;2022-08-19T07:10:59;18.50;99.90
43225;DHT22;28834;48.720;9.208;2022-08-19T07:13:25;18.50;99.90
43225;DHT22;28834;48.720;9.208;2022-08-19T07:15:51;18.50;99.90
43225;DHT22;28834;48.720;9.208;2022-08-19T07:18:18;18.60;99.90
43225;DHT22;28834;48.720;9.208;2022-08-19T07:20:45;18.60;99.90
43225;DHT22;28834;48.720;9.208;2022-08-19T07:23:11;18.60;99.90
43225;DHT22;28834;48.720;9.208;2022-08-19T07:25:38;18.60;99.90
43225;DHT22;28834;48.720;9.208;2022-08-19T07:28:04;18.60;99.90
43225;DHT22;28834;48.720;9.208;2022-08-19T07:30:30;18.70;99.90
43225;DHT22;28834;48.720;9.208;2022-08-19T07:32:56;18.70;99.90
43225;DHT22;28834;48.720;9.208;2022-08-19T07:35:22;18.70;99.90
43225;DHT22;28834;48.720;9.208;2022-08-19T07:37:48;18.70;99.90
43225;DHT22;28834;48.720;9.208;2022-08-19T07:40:14;18.70;99.90
43225;DHT22;28834;48.720;9.208;2022-08-19T07:42:40;18.70;99.90
43225;DHT22;28834;48.720;9.208;2022-08-19T07:45:06;18.60;99.90
43225;DHT22;28834;48.720;9.208;2022-08-19T07:47:32;18.60;99.90
43225;DHT22;28834;48.720;9.208;2022-08-19T07:49:58;18.60;99.90
43225;DHT22;28834;48.720;9.208;2022-08-19T07:52:23;18.60;99.90
43225;DHT22;28834;48.720;9.208;2022-08-19T07:54:49;18.50;99.90
43225;DHT22;28834;48.720;9.208;2022-08-19T07:57:15;18.40;99.90
43225;DHT22;28834;48.720;9.208;2022-08-19T07:59:41;18.30;99.90
43225;DHT22;28834;48.720;9.208;2022-08-19T08:02:08;18.30;99.90
43225;DHT22;28834;48.720;9.208;2022-08-19T08:04:33;18.30;99.90
43225;DHT22;28834;48.720;9.208;2022-08-19T08:07:18;18.10;99.90
43225;DHT22;28834;48.720;9.208;2022-08-19T08:10:05;18.10;99.90
43225;DHT22;28834;48.720;9.208;2022-08-19T08:12:35;18.00;99.90
43225;DHT22;28834;48.720;9.208;2022-08-19T08:15:09;18.00;99.90
43225;DHT22;28834;48.720;9.208;2022-08-19T08:17:35;17.90;99.90
43225;DHT22;28834;48.720;9.208;2022-08-19T08:20:03;17.90;99.90
43225;DHT22;28834;48.720;9.208;2022-08-19T08:22:32;17.80;99.90
43225;DHT22;28834;48.720;9.208;2022-08-19T08:25:19;17.80;99.90
43225;DHT22;28834;48.720;9.208;2022-08-19T08:27:46;17.80;99.90
43225;DHT22;28834;48.720;9.208;2022-08-19T08:30:20;17.70;99.90
43225;DHT22;28834;48.720;9.208;2022-08-19T08:32:46;17.70;99.90
43225;DHT22;28834;48.720;9.208;2022-08-19T08:35:19;17.70;99.90
43225;DHT22;28834;48.720;9.208;2022-08-19T08:37:46;17.70;99.90
43225;DHT22;28834;48.720;9.208;2022-08-19T08:45:33;17.80;99.90
43225;DHT22;28834;48.720;9.208;2022-08-19T08:48:15;17.70;99.90
43225;DHT22;28834;48.720;9.208;2022-08-19T08:50:43;17.80;99.90
43225;DHT22;28834;48.720;9.208;2022-08-19T08:53:10;17.80;99.90
43225;DHT22;28834;48.720;9.208;2022-08-19T08:55:40;17.80;99.90
43225;DHT22;28834;48.720;9.208;2022-08-19T08:58:10;17.80;99.90
43225;DHT22;28834;48.720;9.208;2022-08-19T09:00:42;17.90;99.90
43225;DHT22;28834;48.720;9.208;2022-08-19T09:03:36;18.00;99.90
43225;DHT22;28834;48.720;9.208;2022-08-19T09:06:28;18.00;99.90
43225;DHT22;28834;48.720;9.208;2022-08-19T09:09:14;18.10;99.90
43225;DHT22;28834;48.720;9.208;2022-08-19T09:12:08;18.20;99.90
43225;DHT22;28834;48.720;9.208;2022-08-19T09:14:51;18.20;99.90
43225;DHT22;28834;48.720;9.208;2022-08-19T09:17:20;18.30;99.90
43225;DHT22;28834;48.720;9.208;2022-08-19T09:22:38;18.40;99.90
43225;DHT22;28834;48.720;9.208;2022-08-19T09:25:06;18.40;99.90
43225;DHT22;28834;48.720;9.208;2022-08-19T09:27:32;18.40;99.90
43225;DHT22;28834;48.720;9.208;2022-08-19T09:29:58;18.40;99.90
43225;DHT22;28834;48.720;9.208;2022-08-19T09:32:24;18.40;99.90
43225;DHT22;28834;48.720;9.208;2022-08-19T09:34:51;18.40;99.90
43225;DHT22;28834;48.720;9.208;2022-08-19T09:37:20;18.30;99.90
43225;DHT22;28834;48.720;9.208;2022-08-19T09:39:45;18.30;99.90
43225;DHT22;28834;48.720;9.208;2022-08-19T09:42:11;18.30;99.90
43225;DHT22;28834;48.720;9.208;2022-08-19T09:44:40;18.20;99.90
43225;DHT22;28834;48.720;9.208;2022-08-19T09:47:06;18.20;99.90
43225;DHT22;28834;48.720;9.208;2022-08-19T09:49:32;18.20;99.90
43225;DHT22;28834;48.720;9.208;2022-08-19T09:51:59;18.20;99.90
43225;DHT22;28834;48.720;9.208;2022-08-19T09:54:25;18.20;99.90
43225;DHT22;28834;48.720;9.208;2022-08-19T09:56:52;18.20;99.90
43225;DHT22;28834;48.720;9.208;2022-08-19T09:59:18;18.20;99.90
43225;DHT22;28834;48.720;9.208;2022-08-19T10:01:43;18.20;99.90
43225;DHT22;28834;48.720;9.208;2022-08-19T10:04:09;18.20;99.90
43225;DHT22;28834;48.720;9.208;2022-08-19T10:06:37;18.20;99.90
43225;DHT22;28834;48.720;9.208;2022-08-19T10:09:04;18.20;99.90
43225;DHT22;28834;48.720;9.208;2022-08-19T10:11:32;18.20;99.90
43225;DHT22;28834;48.720;9.208;2022-08-19T10:13:58;18.20;99.90
43225;DHT22;28834;48.720;9.208;2022-08-19T10:16:24;18.20;99.90
43225;DHT22;28834;48.720;9.208;2022-08-19T10:18:51;18.30;99.90
43225;DHT22;28834;48.720;9.208;2022-08-19T10:21:23;18.30;99.90
43225;DHT22;28834;48.720;9.208;2022-08-19T10:23:51;18.30;99.90
43225;DHT22;28834;48.720;9.208;2022-08-19T10:26:20;18.30;99.90
43225;DHT22;28834;48.720;9.208;2022-08-19T10:28:46;18.30;99.90
43225;DHT22;28834;48.720;9.208;2022-08-19T10:31:27;18.30;99.90
43225;DHT22;28834;48.720;9.208;2022-08-19T10:33:54;18.40;99.90
43225;DHT22;28834;48.720;9.208;2022-08-19T10:36:27;18.40;99.90
43225;DHT22;28834;48.720;9.208;2022-08-19T10:38:55;18.40;99.90
43225;DHT22;28834;48.720;9.208;2022-08-19T10:41:26;18.50;99.90
43225;DHT22;28834;48.720;9.208;2022-08-19T10:43:54;18.60;99.90
43225;DHT22;28834;48.720;9.208;2022-08-19T10:46:22;18.60;99.90
43225;DHT22;28834;48.720;9.208;2022-08-19T10:48:49;18.70;99.90
43225;DHT22;28834;48.720;9.208;2022-08-19T10:51:15;18.70;99.90
43225;DHT22;28834;48.720;9.208;2022-08-19T10:54:00;18.80;99.90
43225;DHT22;28834;48.720;9.208;2022-08-19T10:56:27;18.80;99.90
43225;DHT22;28834;48.720;9.208;2022-08-19T10:59:12;18.90;99.90
43225;DHT22;28834;48.720;9.208;2022-08-19T11:01:41;19.00;99.90
43225;DHT22;28834;48.720;9.208;2022-08-19T11:04:07;19.00;99.90
43225;DHT22;28834;48.720;9.208;2022-08-19T11:06:36;19.00;99.90
43225;DHT22;28834;48.720;9.208;2022-08-19T11:09:04;19.10;99.90
43225;DHT22;28834;48.720;9.208;2022-08-19T11:11:30;19.10;99.90
43225;DHT22;28834;48.720;9.208;2022-08-19T11:13:58;19.10;99.90
43225;DHT22;28834;48.720;9.208;2022-08-19T11:16:25;19.10;99.90
43225;DHT22;28834;48.720;9.208;2022-08-19T11:18:57;19.00;99.90
43225;DHT22;28834;48.720;9.208;2022-08-19T11:21:31;19.00;99.90
43225;DHT22;28834;48.720;9.208;2022-08-19T11:23:59;18.90;99.90
43225;DHT22;28834;48.720;9.208;2022-08-19T11:26:27;18.90;99.90
43225;DHT22;28834;48.720;9.208;2022-08-19T11:28:53;18.70;99.90
43225;DHT22;28834;48.720;9.208;2022-08-19T11:31:25;18.70;99.90
43225;DHT22;28834;48.720;9.208;2022-08-19T11:33:51;18.70;99.90
43225;DHT22;28834;48.720;9.208;2022-08-19T11:36:17;18.60;99.90
43225;DHT22;28834;48.720;9.208;2022-08-19T11:38:44;18.60;99.90
43225;DHT22;28834;48.720;9.208;2022-08-19T11:41:10;18.70;99.90
43225;DHT22;28834;48.720;9.208;2022-08-19T11:43:37;18.80;99.90
43225;DHT22;28834;48.720;9.208;2022-08-19T11:46:07;18.80;99.90
43225;DHT22;28834;48.720;9.208;2022-08-19T11:48:34;18.90;99.90
43225;DHT22;28834;48.720;9.208;2022-08-19T11:51:04;19.00;99.90
43225;DHT22;28834;48.720;9.208;2022-08-19T11:53:31;19.00;99.90
43225;DHT22;28834;48.720;9.208;2022-08-19T11:55:57;19.00;99.90
43225;DHT22;28834;48.720;9.208;2022-08-19T11:58:22;19.00;99.90
43225;DHT22;28834;48.720;9.208;2022-08-19T12:00:48;19.10;99.90
43225;DHT22;28834;48.720;9.208;2022-08-19T12:03:14;19.10;99.90
43225;DHT22;28834;48.720;9.208;2022-08-19T12:05:40;19.10;99.90
43225;DHT22;28834;48.720;9.208;2022-08-19T12:08:07;19.20;99.90
43225;DHT22;28834;48.720;9.208;2022-08-19T12:10:33;19.20;99.90
43225;DHT22;28834;48.720;9.208;2022-08-19T12:12:59;19.20;99.90
43225;DHT22;28834;48.720;9.208;2022-08-19T12:15:26;19.20;99.90
43225;DHT22;28834;48.720;9.208;2022-08-19T12:17:55;19.20;99.90
43225;DHT22;28834;48.720;9.208;2022-08-19T12:20:23;19.20;99.90
43225;DHT22;28834;48.720;9.208;2022-08-19T12:22:49;19.20;99.90
43225;DHT22;28834;48.720;9.208;2022-08-19T12:25:15;19.20;99.90
43225;DHT22;28834;48.720;9.208;2022-08-19T12:27:41;19.20;99.90
43225;DHT22;28834;48.720;9.208;2022-08-19T12:30:09;19.20;99.90
43225;DHT22;28834;48.720;9.208;2022-08-19T12:32:35;19.20;99.90
43225;DHT22;28834;48.720;9.208;2022-08-19T12:35:02;19.20;99.90
43225;DHT22;28834;48.720;9.208;2022-08-19T12:37:28;19.20;99.90
43225;DHT22;28834;48.720;9.208;2022-08-19T12:39:53;19.20;99.90
43225;DHT22;28834;48.720;9.208;2022-08-19T12:42:19;19.20;99.90
43225;DHT22;28834;48.720;9.208;2022-08-19T12:44:44;19.20;99.90
43225;DHT22;28834;48.720;9.208;2022-08-19T12:47:12;19.20;99.90
43225;DHT22;28834;48.720;9.208;2022-08-19T12:49:39;19.10;99.90
43225;DHT22;28834;48.720;9.208;2022-08-19T12:52:06;19.10;99.90
43225;DHT22;28834;48.720;9.208;2022-08-19T12:54:33;19.10;99.90
43225;DHT22;28834;48.720;9.208;2022-08-19T12:56:59;19.10;99.90
43225;DHT22;28834;48.720;9.208;2022-08-19T12:59:25;19.00;99.90
43225;DHT22;28834;48.720;9.208;2022-08-19T13:01:51;19.00;99.90
43225;DHT22;28834;48.720;9.208;2022-08-19T13:04:17;19.00;99.90
43225;DHT22;28834;48.720;9.208;2022-08-19T13:06:43;19.00;99.90
43225;DHT22;28834;48.720;9.208;2022-08-19T13:09:09;19.00;99.90
43225;DHT22;28834;48.720;9.208;2022-08-19T13:11:35;19.00;99.90
43225;DHT22;28834;48.720;9.208;2022-08-19T13:14:02;19.00;99.90
43225;DHT22;28834;48.720;9.208;2022-08-19T13:16:29;19.00;99.90
43225;DHT22;28834;48.720;9.208;2022-08-19T13:18:56;19.00;99.90
43225;DHT22;28834;48.720;9.208;2022-08-19T13:21:25;19.00;99.90
43225;DHT22;28834;48.720;9.208;2022-08-19T13:23:52;19.00;99.90
43225;DHT22;28834;48.720;9.208;2022-08-19T13:26:18;19.00;99.90
43225;DHT22;28834;48.720;9.208;2022-08-19T13:28:44;19.10;99.90
43225;DHT22;28834;48.720;9.208;2022-08-19T13:31:32;19.10;99.90
43225;DHT22;28834;48.720;9.208;2022-08-19T13:34:18;19.10;99.90
43225;DHT22;28834;48.720;9.208;2022-08-19T13:36:44;19.10;99.90
43225;DHT22;28834;48.720;9.208;2022-08-19T13:39:10;19.00;99.90
43225;DHT22;28834;48.720;9.208;2022-08-19T13:41:37;19.00;99.90
43225;DHT22;28834;48.720;9.208;2022-08-19T13:44:08;19.00;99.90
43225;DHT22;28834;48.720;9.208;2022-08-19T13:46:33;19.00;99.90
43225;DHT22;28834;48.720;9.208;2022-08-19T13:48:59;19.00;99.90
43225;DHT22;28834;48.720;9.208;2022-08-19T13:51:24;19.00;99.90
43225;DHT22;28834;48.720;9.208;2022-08-19T13:53:50;19.00;99.90
43225;DHT22;28834;48.720;9.208;2022-08-19T13:56:18;18.90;99.90
43225;DHT22;28834;48.720;9.208;2022-08-19T13:58:45;18.90;99.90
43225;DHT22;28834;48.720;9.208;2022-08-19T14:01:11;18.80;99.90
43225;DHT22;28834;48.720;9.208;2022-08-19T14:03:37;18.80;99.90
43225;DHT22;28834;48.720;9.208;2022-08-19T14:06:03;18.80;99.90
43225;DHT22;28834;48.720;9.208;2022-08-19T14:08:29;18.70;99.90
43225;DHT22;28834;48.720;9.208;2022-08-19T14:10:57;18.70;99.90
43225;DHT22;28834;48.720;9.208;2022-08-19T14:13:23;18.70;99.90
43225;DHT22;28834;48.720;9.208;2022-08-19T14:15:50;18.70;99.90
43225;DHT22;28834;48.720;9.208;2022-08-19T14:18:17;18.70;99.90
43225;DHT22;28834;48.720;9.208;2022-08-19T14:20:43;18.60;99.90
43225;DHT22;28834;48.720;9.208;2022-08-19T14:23:09;18.60;99.90
43225;DHT22;28834;48.720;9.208;2022-08-19T14:25:36;18.60;99.90
43225;DHT22;28834;48.720;9.208;2022-08-19T14:28:02;18.60;99.90
43225;DHT22;28834;48.720;9.208;2022-08-19T14:30:33;18.60;99.90
43225;DHT22;28834;48.720;9.208;2022-08-19T14:33:01;18.60;99.90
43225;DHT22;28834;48.720;9.208;2022-08-19T14:35:28;18.60;99.90
43225;DHT22;28834;48.720;9.208;2022-08-19T14:37:55;18.60;99.90
43225;DHT22;28834;48.720;9.208;2022-08-19T14:40:23;18.60;99.90
43225;DHT22;28834;48.720;9.208;2022-08-19T14:42:59;18.60;99.90
43225;DHT22;28834;48.720;9.208;2022-08-19T14:45:30;18.70;99.90
43225;DHT22;28834;48.720;9.208;2022-08-19T14:47:56;18.70;99.90
43225;DHT22;28834;48.720;9.208;2022-08-19T14:50:22;18.80;99.90
43225;DHT22;28834;48.720;9.208;2022-08-19T14:52:48;18.80;99.90
43225;DHT22;28834;48.720;9.208;2022-08-19T14:55:16;18.80;99.90
43225;DHT22;28834;48.720;9.208;2022-08-19T14:57:43;18.90;99.90
43225;DHT22;28834;48.720;9.208;2022-08-19T15:00:10;18.90;99.90
43225;DHT22;28834;48.720;9.208;2022-08-19T15:02:40;18.90;99.90
43225;DHT22;28834;48.720;9.208;2022-08-19T15:05:06;18.90;99.90
43225;DHT22;28834;48.720;9.208;2022-08-19T15:07:32;19.00;99.90
43225;DHT22;28834;48.720;9.208;2022-08-19T15:09:57;19.00;99.90
43225;DHT22;28834;48.720;9.208;2022-08-19T15:12:23;19.00;99.90
43225;DHT22;28834;48.720;9.208;2022-08-19T15:14:49;19.00;99.90
43225;DHT22;28834;48.720;9.208;2022-08-19T15:17:18;19.00;99.90
43225;DHT22;28834;48.720;9.208;2022-08-19T15:19:44;19.00;99.90
43225;DHT22;28834;48.720;9.208;2022-08-19T15:22:10;19.10;99.90
43225;DHT22;28834;48.720;9.208;2022-08-19T15:24:35;19.10;99.90
43225;DHT22;28834;48.720;9.208;2022-08-19T15:27:03;19.10;99.90
43225;DHT22;28834;48.720;9.208;2022-08-19T15:29:30;19.10;99.90
43225;DHT22;28834;48.720;9.208;2022-08-19T15:31:56;19.20;99.90
43225;DHT22;28834;48.720;9.208;2022-08-19T15:34:23;19.30;99.90
43225;DHT22;28834;48.720;9.208;2022-08-19T15:36:50;19.30;99.90
43225;DHT22;28834;48.720;9.208;2022-08-19T15:39:16;19.40;99.90
43225;DHT22;28834;48.720;9.208;2022-08-19T15:41:43;19.40;99.90
43225;DHT22;28834;48.720;9.208;2022-08-19T15:44:13;19.50;99.90